Time;durP1;ratioP1;P1;durP2;ratioP2;P2;SDS_P1;SDS_P2;PMS_P1;PMS_P2;Temp;Humidity;BMP_temperature;BMP_pressure;BME280_temperature;BME280_humidity;BME280_pressure;Samples;Min_cycle;Max_cycle;Signal;HPM_P1;HPM_P2
2023/08/11 00:01:41;;;;;;;;;;;15.90;81.30;;;;;;4990604;28;19929;-70
2023/08/11 00:04:08;;;;;;;;;;;15.90;81.40;;;;;;4989507;28;19930;-71
2023/08/11 00:06:37;;;;;;;;;;;15.90;81.40;;;;;;4984066;28;19941;-70
2023/08/11 00:09:07;;;;;;;;;;;15.90;81.40;;;;;;4985069;28;19932;-71
2023/08/11 00:11:34;;;;;;;;;;;15.90;81.40;;;;;;4986287;28;20028;-71
2023/08/11 00:14:02;;;;;;;;;;;15.90;81.20;;;;;;4988904;28;19926;-71
2023/08/11 00:16:28;;;;;;;;;;;15.90;81.10;;;;;;4987818;28;19933;-72
2023/08/11 00:18:57;;;;;;;;;;;15.90;81.10;;;;;;4987138;28;19933;-72
2023/08/11 00:21:24;;;;;;;;;;;15.80;81.30;;;;;;4985377;28;19933;-72
2023/08/11 00:23:51;;;;;;;;;;;15.70;81.40;;;;;;4985149;28;19934;-70
2023/08/11 00:26:18;;;;;;;;;;;15.70;81.40;;;;;;4985884;28;20090;-71
2023/08/11 00:28:45;;;;;;;;;;;15.70;81.50;;;;;;4989900;28;19937;-72
2023/08/11 00:31:13;;;;;;;;;;;15.60;81.50;;;;;;4988899;28;19937;-71
2023/08/11 00:33:41;;;;;;;;;;;15.60;81.70;;;;;;4985684;28;19957;-71
2023/08/11 00:36:09;;;;;;;;;;;15.60;81.80;;;;;;4984514;28;19934;-71
2023/08/11 00:38:37;;;;;;;;;;;15.60;81.90;;;;;;4983503;28;19930;-78
2023/08/11 00:41:04;;;;;;;;;;;15.60;81.90;;;;;;4986763;28;20023;-78
2023/08/11 00:43:31;;;;;;;;;;;15.60;82.00;;;;;;4988036;28;20017;-78
2023/08/11 00:46:07;;;;;;;;;;;15.50;82.00;;;;;;4987346;28;19930;-79
2023/08/11 00:48:35;;;;;;;;;;;15.50;82.00;;;;;;4985919;28;19929;-79
2023/08/11 00:51:05;;;;;;;;;;;15.50;82.00;;;;;;4986608;28;19933;-79
2023/08/11 00:53:33;;;;;;;;;;;15.50;82.00;;;;;;4986884;28;20390;-79
2023/08/11 00:56:01;;;;;;;;;;;15.40;82.00;;;;;;4986105;28;19932;-80
2023/08/11 00:58:29;;;;;;;;;;;15.40;82.00;;;;;;4983331;28;20275;-77
2023/08/11 01:00:57;;;;;;;;;;;15.40;82.00;;;;;;4984998;28;19934;-78
2023/08/11 01:03:23;;;;;;;;;;;15.40;81.90;;;;;;4984762;28;19930;-79
2023/08/11 01:05:54;;;;;;;;;;;15.40;82.00;;;;;;4988583;28;19925;-80
2023/08/11 01:08:28;;;;;;;;;;;15.40;82.00;;;;;;4965985;28;19930;-82
2023/08/11 01:11:00;;;;;;;;;;;15.30;82.00;;;;;;4970004;28;19940;-80
2023/08/11 01:13:30;;;;;;;;;;;15.30;82.00;;;;;;4987333;28;19976;-79
2023/08/11 01:15:58;;;;;;;;;;;15.30;82.00;;;;;;4983383;28;20016;-76
2023/08/11 01:18:25;;;;;;;;;;;15.20;82.00;;;;;;4977508;28;20505;-80
2023/08/11 01:20:54;;;;;;;;;;;15.20;82.20;;;;;;4987018;28;20029;-80
2023/08/11 01:23:22;;;;;;;;;;;15.20;82.30;;;;;;4960115;28;19933;-79
2023/08/11 01:25:49;;;;;;;;;;;15.10;82.30;;;;;;4961320;28;19929;-78
2023/08/11 01:28:17;;;;;;;;;;;15.10;82.20;;;;;;4984910;28;19981;-76
2023/08/11 01:30:44;;;;;;;;;;;15.10;82.10;;;;;;4984823;28;19929;-79
2023/08/11 01:33:11;;;;;;;;;;;15.10;82.30;;;;;;4985479;28;20399;-78
2023/08/11 01:35:38;;;;;;;;;;;15.10;82.40;;;;;;4986582;28;19936;-79
2023/08/11 01:38:05;;;;;;;;;;;15.00;82.40;;;;;;4974377;28;20349;-78
2023/08/11 01:40:35;;;;;;;;;;;15.00;82.40;;;;;;4988513;28;19969;-79
2023/08/11 01:43:03;;;;;;;;;;;15.00;82.40;;;;;;4986136;28;19976;-75
2023/08/11 01:45:31;;;;;;;;;;;15.00;82.40;;;;;;4987096;28;19937;-78
2023/08/11 01:47:59;;;;;;;;;;;15.00;82.30;;;;;;4985646;28;19937;-74
2023/08/11 01:50:28;;;;;;;;;;;14.90;82.40;;;;;;4984071;28;19937;-74
2023/08/11 01:52:56;;;;;;;;;;;14.90;82.50;;;;;;4987469;28;20020;-73
2023/08/11 01:55:24;;;;;;;;;;;14.90;82.50;;;;;;4984984;28;19933;-74
2023/08/11 01:57:53;;;;;;;;;;;14.90;82.40;;;;;;4986115;28;19933;-75
2023/08/11 02:00:20;;;;;;;;;;;14.90;82.50;;;;;;4965815;28;19934;-75
2023/08/11 02:02:47;;;;;;;;;;;14.90;82.50;;;;;;4980209;28;19996;-74
2023/08/11 02:05:15;;;;;;;;;;;14.90;82.40;;;;;;4987967;28;19937;-76
2023/08/11 02:07:44;;;;;;;;;;;14.90;82.20;;;;;;4986912;28;19953;-73
2023/08/11 02:10:11;;;;;;;;;;;14.90;82.20;;;;;;4986427;28;19936;-74
2023/08/11 02:12:39;;;;;;;;;;;14.90;82.30;;;;;;4967187;28;19930;-74
2023/08/11 02:15:08;;;;;;;;;;;14.80;82.40;;;;;;4972550;28;20016;-74
2023/08/11 02:17:35;;;;;;;;;;;14.80;82.50;;;;;;4988182;28;19933;-76
2023/08/11 02:20:12;;;;;;;;;;;14.80;82.30;;;;;;4990491;28;19941;-74
2023/08/11 02:22:39;;;;;;;;;;;14.90;82.10;;;;;;4988040;28;20377;-76
2023/08/11 02:25:07;;;;;;;;;;;14.90;81.90;;;;;;4989503;28;20012;-74
2023/08/11 02:27:34;;;;;;;;;;;14.90;81.80;;;;;;4986621;28;19979;-75
2023/08/11 02:30:01;;;;;;;;;;;14.80;81.90;;;;;;4986217;28;20024;-75
2023/08/11 02:32:30;;;;;;;;;;;14.80;82.10;;;;;;4987107;28;19937;-75
2023/08/11 02:34:57;;;;;;;;;;;14.70;82.10;;;;;;4984296;28;20373;-73
2023/08/11 02:37:24;;;;;;;;;;;14.70;82.00;;;;;;4972807;28;20312;-75
2023/08/11 02:39:51;;;;;;;;;;;14.70;82.00;;;;;;4987287;28;20025;-73
2023/08/11 02:42:18;;;;;;;;;;;14.70;81.90;;;;;;4985323;28;19930;-74
2023/08/11 02:44:45;;;;;;;;;;;14.70;81.90;;;;;;4984626;28;20363;-74
2023/08/11 02:47:12;;;;;;;;;;;14.60;81.90;;;;;;4985087;28;19949;-74
2023/08/11 02:49:40;;;;;;;;;;;14.70;81.70;;;;;;4967742;28;19965;-74
2023/08/11 02:52:09;;;;;;;;;;;14.60;81.80;;;;;;4992448;28;20288;-74
2023/08/11 02:54:36;;;;;;;;;;;14.60;82.00;;;;;;4974923;28;19925;-75
2023/08/11 02:57:03;;;;;;;;;;;14.60;82.00;;;;;;4990155;28;20367;-74
2023/08/11 02:59:30;;;;;;;;;;;14.60;82.00;;;;;;4978837;28;19934;-71
2023/08/11 03:01:57;;;;;;;;;;;14.60;82.10;;;;;;4990292;28;19950;-71
2023/08/11 03:04:24;;;;;;;;;;;14.50;82.20;;;;;;4990827;28;19933;-71
2023/08/11 03:06:53;;;;;;;;;;;14.60;82.10;;;;;;4978905;28;20024;-71
2023/08/11 03:09:20;;;;;;;;;;;14.60;82.00;;;;;;4978663;28;19936;-70
2023/08/11 03:11:47;;;;;;;;;;;14.50;82.20;;;;;;4979282;28;22095;-71
2023/08/11 03:14:14;;;;;;;;;;;14.50;82.10;;;;;;4977202;28;20020;-71
2023/08/11 03:16:41;;;;;;;;;;;14.50;82.10;;;;;;4973643;28;19937;-71
2023/08/11 03:19:08;;;;;;;;;;;14.50;82.20;;;;;;4973692;28;19965;-71
2023/08/11 03:21:35;;;;;;;;;;;14.50;82.20;;;;;;4990227;28;19998;-70
2023/08/11 03:24:04;;;;;;;;;;;14.40;82.20;;;;;;4978176;28;20605;-70
2023/08/11 03:26:32;;;;;;;;;;;14.40;82.20;;;;;;4987970;28;19925;-71
2023/08/11 03:29:00;;;;;;;;;;;14.40;82.40;;;;;;4994674;28;20289;-70
2023/08/11 03:31:27;;;;;;;;;;;14.30;82.50;;;;;;4988088;28;19936;-71
2023/08/11 03:33:54;;;;;;;;;;;14.30;82.60;;;;;;4988055;28;20008;-71
2023/08/11 03:36:21;;;;;;;;;;;14.30;82.60;;;;;;4972747;28;19934;-70
2023/08/11 03:38:48;;;;;;;;;;;14.30;82.70;;;;;;4990497;28;20309;-72
2023/08/11 03:41:16;;;;;;;;;;;14.40;82.70;;;;;;4989432;28;19930;-72
2023/08/11 03:43:43;;;;;;;;;;;14.30;82.70;;;;;;4978771;28;19971;-71
2023/08/11 03:46:10;;;;;;;;;;;14.30;82.80;;;;;;4970717;28;19929;-70
2023/08/11 03:48:39;;;;;;;;;;;14.20;82.90;;;;;;4975064;28;20393;-71
2023/08/11 03:51:06;;;;;;;;;;;14.20;82.90;;;;;;4986953;28;19930;-71
2023/08/11 03:53:36;;;;;;;;;;;14.20;83.00;;;;;;4995123;28;19934;-72
2023/08/11 03:56:07;;;;;;;;;;;14.20;83.00;;;;;;4994685;28;19930;-71
2023/08/11 03:58:36;;;;;;;;;;;14.20;83.00;;;;;;4977744;28;19933;-71
2023/08/11 04:01:04;;;;;;;;;;;14.20;83.00;;;;;;4986759;28;19929;-72
2023/08/11 04:03:33;;;;;;;;;;;14.20;83.00;;;;;;4971460;28;19930;-70
2023/08/11 04:06:01;;;;;;;;;;;14.20;83.10;;;;;;4990887;28;20381;-71
2023/08/11 04:08:28;;;;;;;;;;;14.10;83.00;;;;;;4988423;28;19929;-74
2023/08/11 04:10:55;;;;;;;;;;;14.10;83.00;;;;;;4990811;28;19926;-75
2023/08/11 04:13:22;;;;;;;;;;;14.20;82.80;;;;;;4988677;28;19995;-75
2023/08/11 04:15:52;;;;;;;;;;;14.10;82.80;;;;;;4988720;28;19934;-75
2023/08/11 04:18:20;;;;;;;;;;;14.10;82.90;;;;;;4989328;28;19932;-75
2023/08/11 04:20:47;;;;;;;;;;;14.10;83.00;;;;;;4989832;28;19974;-75
2023/08/11 04:23:14;;;;;;;;;;;14.00;83.00;;;;;;4987465;28;20388;-75
2023/08/11 04:25:43;;;;;;;;;;;14.00;83.10;;;;;;5003885;28;19965;-76
2023/08/11 04:28:10;;;;;;;;;;;14.10;82.90;;;;;;4989113;28;19930;-77
2023/08/11 04:30:37;;;;;;;;;;;14.00;82.80;;;;;;5003667;28;20356;-74
2023/08/11 04:33:06;;;;;;;;;;;14.10;82.70;;;;;;4972178;28;19942;-77
2023/08/11 04:35:35;;;;;;;;;;;14.10;82.50;;;;;;4971074;28;20033;-74
2023/08/11 04:38:04;;;;;;;;;;;14.10;82.50;;;;;;4976241;28;19925;-76
2023/08/11 04:40:33;;;;;;;;;;;14.10;82.80;;;;;;4987724;28;19926;-75
2023/08/11 04:43:00;;;;;;;;;;;14.00;82.90;;;;;;4987926;28;20435;-75
2023/08/11 04:45:34;;;;;;;;;;;14.00;83.00;;;;;;4976016;28;19934;-75
2023/08/11 04:48:01;;;;;;;;;;;14.00;83.10;;;;;;4977691;28;19953;-74
2023/08/11 04:50:32;;;;;;;;;;;14.00;83.10;;;;;;4988853;28;19926;-75
2023/08/11 04:52:59;;;;;;;;;;;14.00;83.10;;;;;;4987778;28;21221;-74
2023/08/11 04:55:26;;;;;;;;;;;14.00;83.10;;;;;;4983951;28;19945;-75
2023/08/11 04:57:54;;;;;;;;;;;14.10;83.10;;;;;;4986586;28;19926;-76
2023/08/11 05:00:22;;;;;;;;;;;14.00;82.90;;;;;;5002635;28;19925;-74
2023/08/11 05:02:51;;;;;;;;;;;14.10;82.90;;;;;;4989608;28;20381;-73
2023/08/11 05:05:19;;;;;;;;;;;14.10;82.80;;;;;;4989966;28;19926;-76
2023/08/11 05:07:47;;;;;;;;;;;14.10;83.00;;;;;;4989029;28;19936;-75
2023/08/11 05:10:23;;;;;;;;;;;14.10;83.00;;;;;;4987470;28;19926;-75
2023/08/11 05:12:52;;;;;;;;;;;14.10;83.00;;;;;;4988414;28;19930;-74
2023/08/11 05:15:26;;;;;;;;;;;14.10;82.90;;;;;;4986351;28;20400;-76
2023/08/11 05:17:58;;;;;;;;;;;14.10;82.90;;;;;;4988794;28;19934;-68
2023/08/11 05:20:32;;;;;;;;;;;14.20;82.80;;;;;;4989075;28;19930;-68
2023/08/11 05:23:12;;;;;;;;;;;14.20;82.80;;;;;;4988765;28;20044;-67
2023/08/11 05:25:49;;;;;;;;;;;14.20;82.90;;;;;;4987970;28;20249;-68
2023/08/11 05:28:31;;;;;;;;;;;14.20;82.90;;;;;;4988206;28;19936;-68
2023/08/11 05:31:04;;;;;;;;;;;14.20;82.90;;;;;;4986739;28;20297;-67
2023/08/11 05:33:40;;;;;;;;;;;14.20;82.90;;;;;;4987787;28;20012;-69
2023/08/11 05:36:18;;;;;;;;;;;14.30;82.80;;;;;;4988651;28;20016;-68
2023/08/11 05:38:54;;;;;;;;;;;14.30;82.80;;;;;;4989215;28;19929;-69
2023/08/11 05:41:33;;;;;;;;;;;14.30;82.90;;;;;;4988900;28;20005;-68
2023/08/11 05:44:13;;;;;;;;;;;14.30;82.80;;;;;;4988511;28;20513;-70
2023/08/11 05:46:54;;;;;;;;;;;14.30;83.00;;;;;;4986621;28;19930;-69
2023/08/11 05:49:30;;;;;;;;;;;14.40;82.90;;;;;;4987522;28;19940;-68
2023/08/11 05:52:00;;;;;;;;;;;14.40;83.30;;;;;;4988831;28;19926;-67
2023/08/11 05:54:43;;;;;;;;;;;14.40;83.10;;;;;;4987786;28;19930;-69
2023/08/11 05:57:20;;;;;;;;;;;14.40;83.20;;;;;;4984994;28;19941;-68
2023/08/11 05:59:57;;;;;;;;;;;14.50;83.00;;;;;;4983369;28;20385;-68
2023/08/11 06:02:35;;;;;;;;;;;14.40;83.20;;;;;;4981900;28;20081;-68
2023/08/11 06:05:12;;;;;;;;;;;14.50;83.00;;;;;;4986129;28;20301;-68
2023/08/11 06:07:49;;;;;;;;;;;14.50;83.10;;;;;;4985488;28;19930;-68
2023/08/11 06:10:30;;;;;;;;;;;14.60;83.10;;;;;;4984448;28;19933;-69
2023/08/11 06:13:11;;;;;;;;;;;14.60;83.30;;;;;;4987809;28;19925;-68
2023/08/11 06:15:46;;;;;;;;;;;14.60;83.30;;;;;;4967556;28;19938;-68
2023/08/11 06:18:23;;;;;;;;;;;14.60;83.20;;;;;;4968860;28;20349;-68
2023/08/11 06:21:03;;;;;;;;;;;14.70;82.80;;;;;;4968305;28;19931;-68
2023/08/11 06:23:42;;;;;;;;;;;14.70;82.70;;;;;;4988242;28;20020;-70
2023/08/11 06:26:21;;;;;;;;;;;14.70;83.00;;;;;;4991464;28;20404;-68
2023/08/11 06:28:59;;;;;;;;;;;14.90;82.70;;;;;;4987900;28;19937;-75
2023/08/11 06:31:37;;;;;;;;;;;14.90;82.70;;;;;;4990917;28;19933;-72
2023/08/11 06:34:17;;;;;;;;;;;15.00;82.90;;;;;;4991099;28;19926;-75
2023/08/11 06:36:52;;;;;;;;;;;15.10;82.50;;;;;;4991536;28;20013;-74
2023/08/11 06:39:23;;;;;;;;;;;15.30;82.20;;;;;;4991945;28;20028;-74
2023/08/11 06:42:08;;;;;;;;;;;15.40;82.10;;;;;;4991843;28;20381;-74
2023/08/11 06:45:05;;;;;;;;;;;15.60;81.90;;;;;;4979082;28;19932;-75
2023/08/11 06:47:38;;;;;;;;;;;15.80;81.70;;;;;;4992658;28;19926;-75
2023/08/11 06:50:15;;;;;;;;;;;15.90;81.90;;;;;;4991120;28;19929;-74
2023/08/11 06:52:51;;;;;;;;;;;16.10;81.50;;;;;;4991778;28;19941;-75
2023/08/11 06:55:28;;;;;;;;;;;16.30;81.00;;;;;;4990823;28;19930;-75
2023/08/11 06:58:12;;;;;;;;;;;16.50;80.70;;;;;;4990785;28;20024;-74
2023/08/11 07:00:51;;;;;;;;;;;16.60;80.70;;;;;;4991110;28;20008;-74
2023/08/11 07:03:29;;;;;;;;;;;16.90;80.00;;;;;;4989055;28;19932;-74
2023/08/11 07:06:06;;;;;;;;;;;17.10;79.40;;;;;;4992561;28;20024;-74
2023/08/11 07:08:42;;;;;;;;;;;17.30;79.30;;;;;;4991791;28;19937;-74
2023/08/11 07:11:20;;;;;;;;;;;17.40;79.40;;;;;;4989589;28;19981;-75
2023/08/11 07:13:52;;;;;;;;;;;17.60;79.40;;;;;;4990340;28;19930;-74
2023/08/11 07:16:21;;;;;;;;;;;17.70;79.20;;;;;;4990385;28;19930;-74
2023/08/11 07:18:50;;;;;;;;;;;17.90;78.80;;;;;;4989173;28;19926;-74
2023/08/11 07:21:21;;;;;;;;;;;18.10;78.10;;;;;;4989084;28;19930;-73
2023/08/11 07:23:57;;;;;;;;;;;18.20;78.30;;;;;;4991678;28;20408;-74
2023/08/11 07:26:32;;;;;;;;;;;18.40;77.50;;;;;;4990793;28;20367;-74
2023/08/11 07:29:06;;;;;;;;;;;18.60;75.80;;;;;;4990498;28;20016;-73
2023/08/11 07:31:36;;;;;;;;;;;18.90;75.50;;;;;;4989303;28;19941;-73
2023/08/11 07:34:07;;;;;;;;;;;18.90;76.30;;;;;;4989820;28;19990;-73
2023/08/11 07:36:37;;;;;;;;;;;19.00;77.00;;;;;;4989973;28;20365;-73
2023/08/11 07:39:10;;;;;;;;;;;19.10;76.40;;;;;;4989420;28;19961;-81
2023/08/11 07:41:40;;;;;;;;;;;19.30;75.90;;;;;;5006714;28;20818;-81
2023/08/11 07:44:10;;;;;;;;;;;19.50;75.40;;;;;;4990484;28;19932;-80
2023/08/11 07:46:42;;;;;;;;;;;19.60;74.50;;;;;;4990832;28;19930;-81
2023/08/11 07:49:13;;;;;;;;;;;19.80;74.60;;;;;;4989810;28;19936;-81
2023/08/11 07:51:44;;;;;;;;;;;19.90;74.30;;;;;;4987966;28;19926;-80
2023/08/11 07:54:16;;;;;;;;;;;20.10;74.00;;;;;;4991581;28;19933;-83
2023/08/11 07:56:47;;;;;;;;;;;20.30;73.10;;;;;;4992547;28;19929;-80
2023/08/11 07:59:22;;;;;;;;;;;20.50;72.40;;;;;;4990440;28;19964;-80
2023/08/11 08:01:57;;;;;;;;;;;20.60;72.20;;;;;;4990690;28;20017;-70
2023/08/11 08:04:27;;;;;;;;;;;20.70;71.80;;;;;;4989421;28;19932;-70
2023/08/11 08:07:04;;;;;;;;;;;20.90;71.50;;;;;;4990462;28;19937;-69
2023/08/11 08:09:35;;;;;;;;;;;21.00;72.30;;;;;;4987834;28;20559;-70
2023/08/11 08:12:09;;;;;;;;;;;21.10;71.60;;;;;;4990766;28;19926;-71
2023/08/11 08:14:49;;;;;;;;;;;21.30;71.90;;;;;;4989992;28;22270;-70
2023/08/11 08:17:23;;;;;;;;;;;21.40;71.10;;;;;;4988821;28;20360;-69
2023/08/11 08:19:54;;;;;;;;;;;21.60;71.10;;;;;;4989614;28;20022;-70
2023/08/11 08:22:24;;;;;;;;;;;21.70;70.80;;;;;;4988947;28;20740;-70
2023/08/11 08:25:00;;;;;;;;;;;21.80;69.90;;;;;;4989338;28;19937;-70
2023/08/11 08:27:31;;;;;;;;;;;21.90;70.40;;;;;;4987454;28;19976;-70
2023/08/11 08:30:09;;;;;;;;;;;22.00;69.50;;;;;;4989483;28;19965;-70
2023/08/11 08:32:39;;;;;;;;;;;22.10;69.90;;;;;;4984037;28;19952;-70
2023/08/11 08:35:13;;;;;;;;;;;22.30;69.80;;;;;;4989022;28;19930;-69
2023/08/11 08:37:48;;;;;;;;;;;22.40;69.60;;;;;;4974009;28;19930;-70
2023/08/11 08:40:17;;;;;;;;;;;22.50;69.00;;;;;;4968582;28;19926;-70
2023/08/11 08:42:46;;;;;;;;;;;22.60;68.50;;;;;;4967373;28;20016;-70
2023/08/11 08:45:18;;;;;;;;;;;22.70;68.40;;;;;;4988281;28;19965;-71
2023/08/11 08:47:49;;;;;;;;;;;22.80;68.60;;;;;;4990003;28;19938;-70
2023/08/11 08:50:21;;;;;;;;;;;22.90;68.60;;;;;;4987995;28;19937;-71
2023/08/11 08:52:54;;;;;;;;;;;23.00;67.60;;;;;;4989232;28;19925;-70
2023/08/11 08:55:31;;;;;;;;;;;23.20;66.80;;;;;;4989339;28;20400;-70
2023/08/11 08:58:09;;;;;;;;;;;23.30;66.20;;;;;;4988974;28;19926;-70
2023/08/11 09:00:43;;;;;;;;;;;23.40;65.20;;;;;;4988539;28;19930;-70
2023/08/11 09:03:18;;;;;;;;;;;23.50;64.80;;;;;;4990329;28;20826;-70
2023/08/11 09:05:49;;;;;;;;;;;23.60;64.60;;;;;;4989423;28;19925;-71
2023/08/11 09:08:20;;;;;;;;;;;23.70;64.30;;;;;;4986169;28;20749;-71
2023/08/11 09:10:50;;;;;;;;;;;23.80;64.30;;;;;;4987985;28;19929;-70
2023/08/11 09:13:21;;;;;;;;;;;23.90;63.90;;;;;;4988221;28;19934;-70
2023/08/11 09:15:55;;;;;;;;;;;24.00;63.00;;;;;;4987632;28;20041;-70
2023/08/11 09:18:28;;;;;;;;;;;24.10;61.80;;;;;;4989737;28;20365;-70
2023/08/11 09:21:04;;;;;;;;;;;24.20;61.10;;;;;;5003860;28;20283;-70
2023/08/11 09:23:34;;;;;;;;;;;24.30;61.20;;;;;;4987943;28;20443;-71
2023/08/11 09:26:05;;;;;;;;;;;24.30;60.30;;;;;;4987604;28;19948;-72
2023/08/11 09:28:41;;;;;;;;;;;24.50;60.10;;;;;;4988469;28;19934;-71
2023/08/11 09:31:16;;;;;;;;;;;24.60;60.20;;;;;;4988163;28;19929;-70
2023/08/11 09:33:49;;;;;;;;;;;24.70;60.10;;;;;;4986796;28;19930;-71
2023/08/11 09:36:24;;;;;;;;;;;24.80;59.90;;;;;;4989475;28;20448;-71
2023/08/11 09:38:52;;;;;;;;;;;24.90;60.20;;;;;;4989728;28;20001;-70
2023/08/11 09:41:26;;;;;;;;;;;25.00;60.00;;;;;;4987764;28;20023;-70
2023/08/11 09:43:58;;;;;;;;;;;25.10;59.90;;;;;;4988164;28;19941;-70
2023/08/11 09:46:36;;;;;;;;;;;25.10;59.50;;;;;;4988034;28;19929;-71
2023/08/11 09:49:05;;;;;;;;;;;25.20;59.50;;;;;;4988359;28;20348;-71
2023/08/11 09:51:38;;;;;;;;;;;25.30;59.00;;;;;;4987482;28;19972;-70
2023/08/11 09:54:14;;;;;;;;;;;25.40;58.80;;;;;;4988730;28;20022;-71
2023/08/11 09:56:47;;;;;;;;;;;25.50;58.50;;;;;;4988002;28;20344;-69
2023/08/11 09:59:21;;;;;;;;;;;25.60;58.50;;;;;;4987749;28;20415;-71
2023/08/11 10:01:54;;;;;;;;;;;25.60;57.70;;;;;;4987382;28;19933;-70
2023/08/11 10:04:28;;;;;;;;;;;25.70;56.60;;;;;;4986855;28;20024;-70
2023/08/11 10:07:07;;;;;;;;;;;25.80;56.60;;;;;;4986767;28;19926;-71
2023/08/11 10:09:38;;;;;;;;;;;25.80;56.20;;;;;;4988986;28;19965;-69
2023/08/11 10:12:06;;;;;;;;;;;25.90;55.70;;;;;;4970759;28;19936;-71
2023/08/11 10:14:45;;;;;;;;;;;26.00;54.60;;;;;;4967439;28;20301;-70
2023/08/11 10:17:25;;;;;;;;;;;26.10;54.90;;;;;;4984984;28;20040;-70
2023/08/11 10:19:57;;;;;;;;;;;26.20;53.40;;;;;;4987729;28;19932;-72
2023/08/11 10:22:31;;;;;;;;;;;26.20;52.50;;;;;;4985369;28;20251;-71
2023/08/11 10:25:04;;;;;;;;;;;26.30;52.70;;;;;;4988404;28;19929;-70
2023/08/11 10:27:56;;;;;;;;;;;26.30;53.10;;;;;;4968428;28;19973;-71
2023/08/11 10:30:31;;;;;;;;;;;26.40;52.70;;;;;;4972124;28;19977;-69
2023/08/11 10:33:12;;;;;;;;;;;26.50;52.60;;;;;;4985968;28;19983;-71
2023/08/11 10:35:57;;;;;;;;;;;26.50;52.70;;;;;;4986447;28;19926;-71
2023/08/11 10:38:26;;;;;;;;;;;26.50;52.70;;;;;;4985513;28;19937;-70
2023/08/11 10:40:57;;;;;;;;;;;26.50;53.00;;;;;;4987962;28;19926;-71
2023/08/11 10:43:30;;;;;;;;;;;26.60;52.50;;;;;;4986990;28;20380;-69
2023/08/11 10:45:57;;;;;;;;;;;26.60;52.50;;;;;;4988423;28;19933;-71
2023/08/11 10:48:25;;;;;;;;;;;26.60;52.60;;;;;;4987399;28;19926;-71
2023/08/11 10:50:52;;;;;;;;;;;26.70;52.40;;;;;;4987796;28;19932;-71
2023/08/11 10:53:20;;;;;;;;;;;26.70;52.50;;;;;;4987291;28;19969;-71
2023/08/11 10:55:58;;;;;;;;;;;26.80;52.40;;;;;;4985901;28;19925;-70
2023/08/11 10:58:25;;;;;;;;;;;26.80;52.70;;;;;;4986884;28;19926;-69
2023/08/11 11:00:53;;;;;;;;;;;26.90;52.10;;;;;;4988063;28;19973;-70
2023/08/11 11:03:21;;;;;;;;;;;27.00;52.50;;;;;;4988163;28;20028;-72
2023/08/11 11:05:50;;;;;;;;;;;27.10;52.20;;;;;;4986962;28;19933;-71
2023/08/11 11:08:16;;;;;;;;;;;27.10;52.30;;;;;;4986843;28;20382;-72
2023/08/11 11:10:44;;;;;;;;;;;27.10;52.60;;;;;;4986904;28;19932;-70
2023/08/11 11:13:11;;;;;;;;;;;27.00;52.70;;;;;;4991607;28;19930;-71
2023/08/11 11:15:38;;;;;;;;;;;27.00;53.00;;;;;;4991951;28;20399;-70
2023/08/11 11:18:05;;;;;;;;;;;27.10;52.60;;;;;;4991059;28;19972;-71
2023/08/11 11:20:32;;;;;;;;;;;27.10;52.90;;;;;;4989715;28;20374;-70
2023/08/11 11:23:00;;;;;;;;;;;27.00;52.90;;;;;;4990530;28;20016;-70
2023/08/11 11:25:27;;;;;;;;;;;27.10;52.30;;;;;;4980276;28;19930;-70
2023/08/11 11:27:55;;;;;;;;;;;27.10;52.20;;;;;;4990882;28;19952;-69
2023/08/11 11:30:22;;;;;;;;;;;27.10;52.90;;;;;;4990820;28;19977;-71
2023/08/11 11:32:49;;;;;;;;;;;27.10;53.00;;;;;;4989891;28;20389;-70
2023/08/11 11:35:17;;;;;;;;;;;27.10;52.40;;;;;;4989910;28;19934;-70
2023/08/11 11:37:44;;;;;;;;;;;27.20;53.10;;;;;;4990740;28;19930;-71
2023/08/11 11:40:13;;;;;;;;;;;27.10;53.10;;;;;;4990637;28;19933;-70
2023/08/11 11:42:41;;;;;;;;;;;27.10;52.60;;;;;;4989876;28;19964;-71
2023/08/11 11:45:09;;;;;;;;;;;27.00;52.80;;;;;;4990625;28;19976;-70
2023/08/11 11:47:36;;;;;;;;;;;27.20;52.70;;;;;;4989178;28;20502;-70
2023/08/11 11:50:07;;;;;;;;;;;27.20;52.90;;;;;;4988274;28;20448;-71
2023/08/11 11:52:36;;;;;;;;;;;27.20;52.50;;;;;;4990392;28;19929;-71
2023/08/11 11:55:03;;;;;;;;;;;27.10;52.70;;;;;;4990323;28;19938;-70
2023/08/11 11:57:32;;;;;;;;;;;27.10;52.10;;;;;;4992037;28;20024;-71
2023/08/11 11:59:59;;;;;;;;;;;27.00;52.80;;;;;;4977163;28;19945;-70
2023/08/11 12:02:26;;;;;;;;;;;27.00;52.80;;;;;;4988938;28;19934;-71
2023/08/11 12:04:53;;;;;;;;;;;27.00;53.10;;;;;;4974115;28;20266;-72
2023/08/11 12:07:30;;;;;;;;;;;27.10;52.60;;;;;;4990918;28;19945;-71
2023/08/11 12:09:58;;;;;;;;;;;27.30;52.40;;;;;;4990579;28;20775;-72
2023/08/11 12:12:25;;;;;;;;;;;27.20;52.50;;;;;;4990427;28;20304;-70
2023/08/11 12:14:54;;;;;;;;;;;27.20;52.40;;;;;;4987651;28;19930;-70
2023/08/11 12:17:22;;;;;;;;;;;27.20;52.30;;;;;;4988755;28;19941;-71
2023/08/11 12:19:49;;;;;;;;;;;27.30;52.60;;;;;;4989195;28;20025;-71
2023/08/11 12:22:16;;;;;;;;;;;27.20;52.40;;;;;;4989480;28;20024;-71
2023/08/11 12:24:42;;;;;;;;;;;27.10;52.60;;;;;;4991132;28;19930;-71
2023/08/11 12:27:10;;;;;;;;;;;27.00;52.50;;;;;;4989493;28;19948;-71
2023/08/11 12:29:37;;;;;;;;;;;27.10;53.00;;;;;;4989853;28;19934;-71
2023/08/11 12:32:05;;;;;;;;;;;27.10;53.30;;;;;;4987107;28;20014;-71
2023/08/11 12:34:32;;;;;;;;;;;27.00;53.40;;;;;;4990040;28;19948;-71
2023/08/11 12:36:59;;;;;;;;;;;26.90;53.40;;;;;;4990134;28;19972;-70
2023/08/11 12:39:29;;;;;;;;;;;27.00;53.20;;;;;;4989918;28;20394;-71
2023/08/11 12:41:56;;;;;;;;;;;27.10;53.50;;;;;;4989020;28;20024;-70
2023/08/11 12:44:23;;;;;;;;;;;27.10;52.70;;;;;;4987061;28;19933;-69
2023/08/11 12:46:50;;;;;;;;;;;27.20;52.60;;;;;;4987394;28;20358;-70
2023/08/11 12:49:18;;;;;;;;;;;27.10;52.60;;;;;;4989276;28;20020;-71
2023/08/11 12:51:50;;;;;;;;;;;27.10;53.10;;;;;;4991038;28;20003;-70
2023/08/11 12:54:17;;;;;;;;;;;27.10;53.30;;;;;;4987835;28;19992;-72
2023/08/11 12:56:44;;;;;;;;;;;27.10;53.70;;;;;;4989616;28;19925;-70
2023/08/11 12:59:11;;;;;;;;;;;27.00;53.60;;;;;;4988972;28;20020;-71
2023/08/11 13:01:38;;;;;;;;;;;26.90;52.80;;;;;;4989181;28;19930;-71
2023/08/11 13:04:06;;;;;;;;;;;27.00;52.90;;;;;;4987417;28;20009;-70
2023/08/11 13:06:35;;;;;;;;;;;27.10;53.00;;;;;;4989993;28;20009;-72
2023/08/11 13:09:02;;;;;;;;;;;26.90;52.60;;;;;;4987947;28;21166;-71
2023/08/11 13:11:29;;;;;;;;;;;26.90;52.90;;;;;;4988297;28;19936;-71
2023/08/11 13:13:56;;;;;;;;;;;26.90;52.30;;;;;;4988641;28;19934;-71
2023/08/11 13:16:23;;;;;;;;;;;26.90;52.50;;;;;;4989414;28;19960;-71
2023/08/11 13:18:50;;;;;;;;;;;26.90;53.50;;;;;;4989622;28;20473;-70
2023/08/11 13:21:17;;;;;;;;;;;26.70;53.20;;;;;;4986377;28;19929;-70
2023/08/11 13:23:46;;;;;;;;;;;26.60;53.70;;;;;;4988209;28;19952;-69
2023/08/11 13:26:13;;;;;;;;;;;26.70;53.30;;;;;;4988109;28;20339;-70
2023/08/11 13:28:41;;;;;;;;;;;26.70;53.10;;;;;;4988324;28;19926;-71
2023/08/11 13:31:08;;;;;;;;;;;26.60;54.10;;;;;;4988030;28;20025;-72
2023/08/11 13:33:35;;;;;;;;;;;26.60;53.10;;;;;;4988673;28;20016;-70
2023/08/11 13:36:01;;;;;;;;;;;26.50;53.70;;;;;;4987012;28;19936;-73
2023/08/11 13:38:28;;;;;;;;;;;26.30;54.80;;;;;;4987576;28;19952;-71
2023/08/11 13:40:58;;;;;;;;;;;26.40;54.20;;;;;;4985525;28;20364;-71
2023/08/11 13:43:24;;;;;;;;;;;26.50;54.30;;;;;;4988863;28;19936;-71
2023/08/11 13:45:53;;;;;;;;;;;26.40;55.10;;;;;;4989253;28;19925;-71
2023/08/11 13:48:20;;;;;;;;;;;26.50;54.60;;;;;;4987417;28;19930;-70
2023/08/11 13:50:47;;;;;;;;;;;26.50;56.00;;;;;;4988039;28;19933;-71
2023/08/11 13:53:15;;;;;;;;;;;26.40;55.20;;;;;;4984251;28;19957;-71
2023/08/11 13:55:42;;;;;;;;;;;26.30;53.80;;;;;;4989009;28;20452;-71
2023/08/11 13:58:10;;;;;;;;;;;26.30;54.30;;;;;;4988014;28;20399;-77
2023/08/11 14:00:37;;;;;;;;;;;26.20;54.90;;;;;;4988612;28;20020;-77
2023/08/11 14:03:05;;;;;;;;;;;26.20;54.10;;;;;;4988384;28;19965;-76
2023/08/11 14:05:31;;;;;;;;;;;26.20;54.90;;;;;;4975702;28;19930;-77
2023/08/11 14:07:58;;;;;;;;;;;26.20;55.10;;;;;;4988384;28;20383;-77
2023/08/11 14:10:25;;;;;;;;;;;26.10;54.00;;;;;;4986212;28;19934;-76
2023/08/11 14:12:53;;;;;;;;;;;26.00;54.30;;;;;;4989008;28;19961;-75
2023/08/11 14:15:21;;;;;;;;;;;26.00;54.50;;;;;;4987948;28;19936;-78
2023/08/11 14:17:48;;;;;;;;;;;26.00;56.00;;;;;;4988684;28;19930;-76
2023/08/11 14:20:15;;;;;;;;;;;26.10;55.20;;;;;;4988488;28;19934;-75
2023/08/11 14:22:42;;;;;;;;;;;26.00;55.30;;;;;;4986899;28;20024;-76
2023/08/11 14:25:09;;;;;;;;;;;26.00;55.00;;;;;;4989053;28;19926;-77
2023/08/11 14:27:36;;;;;;;;;;;26.00;54.80;;;;;;4988280;28;19925;-80
2023/08/11 14:30:03;;;;;;;;;;;26.00;55.30;;;;;;4987255;28;19926;-77
2023/08/11 14:32:32;;;;;;;;;;;26.00;55.40;;;;;;4987943;28;20435;-79
2023/08/11 14:34:59;;;;;;;;;;;26.00;56.00;;;;;;4987386;28;19933;-78